createdAt,value
2018-05-08T00:01:58.088Z,91.80
2018-05-08T00:04:24.501Z,91.90
2018-05-08T00:10:28.906Z,92.10
2018-05-08T00:26:56.949Z,92.40
2018-05-08T01:30:05.399Z,92.60
2018-05-08T01:32:31.841Z,92.60
2018-05-08T01:34:58.977Z,93.80
2018-05-08T01:37:25.409Z,93.80
2018-05-08T01:39:51.806Z,94.70
2018-05-08T01:42:18.220Z,95.40
2018-05-08T01:44:44.654Z,95.80
2018-05-08T01:47:11.073Z,96.20
2018-05-08T01:49:37.499Z,95.80
2018-05-08T01:52:03.961Z,95.80
2018-05-08T01:54:30.401Z,95.90
2018-05-08T01:56:56.825Z,96.00
2018-05-08T01:59:23.316Z,95.90
2018-05-08T02:01:49.709Z,95.90
2018-05-08T02:04:16.189Z,96.20
2018-05-08T02:06:43.388Z,96.40
2018-05-08T02:09:09.884Z,96.40
2018-05-08T02:11:36.335Z,96.50
2018-05-08T02:14:02.857Z,96.50
2018-05-08T02:16:29.281Z,96.50
2018-05-08T02:18:56.414Z,96.50
2018-05-08T02:21:22.841Z,96.50
2018-05-08T02:23:50.030Z,97.00
2018-05-08T02:26:16.459Z,97.00
2018-05-08T02:28:42.968Z,97.60
2018-05-08T02:31:09.368Z,98.20
2018-05-08T02:33:35.829Z,98.30
2018-05-08T02:36:02.269Z,98.20
2018-05-08T02:38:29.409Z,98.40
2018-05-08T02:40:55.811Z,98.40
2018-05-08T02:43:22.229Z,98.50
2018-05-08T02:45:48.657Z,98.20
2018-05-08T02:48:15.062Z,98.40
2018-05-08T02:50:41.476Z,98.50
2018-05-08T02:53:07.924Z,98.50
2018-05-08T02:55:34.449Z,98.60
2018-05-08T02:58:02.005Z,98.20
2018-05-08T03:00:29.144Z,98.20
2018-05-08T03:02:55.588Z,98.20
2018-05-08T03:05:22.007Z,97.70
2018-05-08T03:07:48.559Z,97.70
2018-05-08T03:10:15.715Z,97.60
2018-05-08T03:12:42.878Z,97.40
2018-05-08T03:15:10.019Z,97.20
2018-05-08T03:17:36.464Z,97.20
2018-05-08T03:20:03.678Z,97.10
2018-05-08T03:22:30.861Z,96.70
2018-05-08T03:24:58.017Z,96.70
2018-05-08T03:27:24.455Z,96.70
2018-05-08T03:29:51.584Z,96.40
2018-05-08T03:32:18.111Z,96.40
2018-05-08T03:34:44.569Z,96.40
2018-05-08T03:37:11.693Z,96.30
2018-05-08T03:39:38.075Z,96.30
2018-05-08T03:42:04.624Z,96.10
2018-05-08T03:44:31.035Z,96.30
2018-05-08T03:46:58.153Z,96.40
2018-05-08T03:49:25.364Z,96.80
2018-05-08T03:51:51.772Z,96.50
2018-05-08T03:54:18.203Z,96.50
2018-05-08T03:56:44.701Z,96.70
2018-05-08T03:59:11.145Z,96.80
2018-05-08T04:01:50.713Z,96.70
2018-05-08T04:04:29.449Z,96.70
2018-05-08T04:07:08.109Z,96.20
2018-05-08T04:09:34.610Z,96.30
2018-05-08T04:12:01.095Z,96.10
2018-05-08T04:14:27.540Z,95.70
2018-05-08T04:16:53.946Z,95.70
2018-05-08T04:19:20.408Z,95.50
2018-05-08T04:21:46.837Z,95.40
2018-05-08T04:24:13.976Z,95.50
2018-05-08T04:26:41.140Z,95.30
2018-05-08T04:29:08.329Z,95.20
2018-05-08T04:31:36.267Z,95.20
2018-05-08T04:34:03.414Z,95.00
2018-05-08T04:36:29.918Z,95.00
2018-05-08T04:38:56.299Z,95.00
2018-05-08T04:41:23.405Z,94.30
2018-05-08T04:43:50.047Z,94.30
2018-05-08T04:46:16.428Z,91.40
2018-05-08T04:48:42.816Z,82.70
2018-05-08T04:51:09.973Z,64.20
2018-05-08T04:53:36.412Z,64.10
2018-05-08T04:56:03.556Z,54.00
2018-05-08T04:58:30.755Z,50.40
2018-05-08T05:00:57.180Z,50.30
2018-05-08T05:03:23.579Z,46.60
2018-05-08T05:05:50.028Z,44.40
2018-05-08T05:08:16.520Z,42.80
2018-05-08T05:10:42.915Z,40.80
2018-05-08T05:13:09.357Z,39.30
2018-05-08T05:15:35.779Z,38.70
2018-05-08T05:18:02.258Z,38.40
2018-05-08T05:20:28.740Z,37.40
2018-05-08T05:22:55.221Z,35.90
2018-05-08T05:25:21.758Z,34.80
2018-05-08T05:27:48.213Z,33.80
2018-05-08T05:30:15.446Z,33.10
2018-05-08T05:32:42.603Z,32.80
2018-05-08T05:35:09.065Z,32.70
2018-05-08T05:37:35.559Z,32.50
2018-05-08T05:40:03.467Z,31.70
2018-05-08T05:42:30.065Z,31.70
2018-05-08T05:44:56.605Z,31.90
2018-05-08T05:47:23.003Z,31.60
2018-05-08T05:49:49.467Z,31.80
2018-05-08T05:52:15.861Z,32.50
2018-05-08T05:54:42.259Z,33.10
2018-05-08T05:57:09.437Z,34.90
2018-05-08T05:59:35.907Z,34.20
2018-05-08T06:02:02.351Z,34.70
2018-05-08T06:04:30.313Z,35.50
2018-05-08T06:06:56.772Z,35.50
2018-05-08T06:09:23.918Z,36.40
2018-05-08T06:11:51.176Z,36.50
2018-05-08T06:14:17.611Z,36.50
2018-05-08T06:16:44.753Z,36.70
2018-05-08T06:19:15.414Z,37.20
2018-05-08T06:21:41.843Z,37.10
2018-05-08T06:24:08.240Z,37.10
2018-05-08T06:26:34.719Z,37.40
2018-05-08T06:29:01.117Z,37.40
2018-05-08T06:31:28.251Z,36.80
2018-05-08T06:33:54.689Z,36.80
2018-05-08T06:36:21.870Z,36.40
2018-05-08T06:38:48.296Z,36.30
2018-05-08T06:41:15.463Z,36.60
2018-05-08T06:43:42.635Z,36.10
2018-05-08T06:46:09.035Z,36.10
2018-05-08T06:48:35.466Z,36.30
2018-05-08T06:51:01.842Z,35.50
2018-05-08T06:53:28.242Z,35.50
2018-05-08T06:55:54.671Z,34.60
2018-05-08T06:58:21.088Z,33.90
2018-05-08T07:00:48.233Z,33.30
2018-05-08T07:03:14.637Z,33.30
2018-05-08T07:05:41.016Z,33.10
2018-05-08T07:08:07.433Z,32.90
2018-05-08T07:10:34.976Z,31.80
2018-05-08T07:13:01.377Z,31.80
2018-05-08T07:15:27.762Z,31.30
2018-05-08T07:17:54.222Z,31.20
2018-05-08T07:20:20.644Z,30.70
2018-05-08T07:22:47.030Z,31.00
2018-05-08T07:25:13.450Z,30.90
2018-05-08T07:27:39.841Z,30.30
2018-05-08T07:30:06.261Z,29.70
2018-05-08T07:32:32.725Z,29.40
2018-05-08T07:34:59.162Z,29.30
2018-05-08T07:37:25.568Z,29.00
2018-05-08T07:39:52.169Z,28.70
2018-05-08T07:42:19.338Z,27.80
2018-05-08T07:44:46.476Z,26.90
2018-05-08T07:47:12.892Z,27.40
2018-05-08T07:49:39.298Z,26.80
2018-05-08T07:52:05.698Z,25.90
2018-05-08T07:54:32.898Z,24.80
2018-05-08T07:56:59.303Z,24.70
2018-05-08T07:59:25.689Z,24.20
2018-05-08T08:01:52.883Z,23.30
2018-05-08T08:04:19.277Z,23.20
2018-05-08T08:06:46.406Z,24.10
2018-05-08T08:09:12.824Z,23.60
2018-05-08T08:11:39.241Z,23.60
2018-05-08T08:14:05.662Z,23.10
2018-05-08T08:16:32.150Z,21.90
2018-05-08T08:18:58.539Z,21.60
2018-05-08T08:21:24.983Z,22.20
2018-05-08T08:23:51.601Z,21.80
2018-05-08T08:26:18.002Z,21.10
2018-05-08T08:28:44.373Z,20.50
2018-05-08T08:31:10.865Z,20.00
2018-05-08T08:33:37.241Z,18.90
2018-05-08T08:36:03.625Z,18.90
2018-05-08T08:38:31.795Z,19.10
2018-05-08T08:40:58.395Z,19.10
2018-05-08T08:43:24.862Z,19.00
2018-05-08T08:45:52.074Z,19.40
2018-05-08T08:48:18.475Z,19.40
2018-05-08T08:50:45.604Z,20.80
2018-05-08T08:53:12.775Z,22.50
2018-05-08T08:55:39.180Z,22.10
2018-05-08T08:58:05.612Z,23.30
2018-05-08T09:00:32.016Z,25.50
2018-05-08T09:02:58.410Z,26.20
2018-05-08T09:05:25.526Z,28.60
2018-05-08T09:07:52.006Z,28.50
2018-05-08T09:10:19.246Z,30.60
2018-05-08T09:12:45.650Z,30.50
2018-05-08T09:15:12.061Z,31.30
2018-05-08T11:14:10.860Z,33.80
2018-05-08T12:16:30.790Z,32.90
2018-05-08T12:18:57.268Z,32.80
2018-05-08T12:21:23.694Z,32.90
2018-05-08T12:23:50.161Z,33.00
2018-05-08T12:26:17.325Z,32.30
2018-05-08T12:28:44.537Z,32.20
2018-05-08T12:31:10.969Z,32.20
2018-05-08T12:33:37.508Z,32.00
2018-05-08T12:36:03.905Z,32.00
2018-05-08T12:38:30.381Z,31.90
2018-05-08T12:40:57.536Z,32.30
2018-05-08T12:43:24.688Z,32.30
2018-05-08T12:45:51.882Z,32.40
2018-05-08T12:48:18.286Z,32.30
2018-05-08T12:50:44.684Z,32.80
2018-05-08T12:53:11.189Z,32.60
2018-05-08T12:55:37.606Z,31.50
2018-05-08T12:58:04.026Z,31.10
2018-05-08T13:00:30.577Z,31.20
2018-05-08T13:02:56.993Z,31.00
2018-05-08T13:05:24.255Z,32.20
2018-05-08T13:07:50.621Z,32.20
2018-05-08T13:10:17.012Z,31.60
2018-05-08T13:12:43.402Z,30.60
2018-05-08T13:15:09.905Z,30.80
2018-05-08T13:17:36.337Z,31.90
2018-05-08T13:20:02.869Z,32.20
2018-05-08T13:22:29.413Z,32.50
2018-05-08T13:24:55.835Z,33.60
2018-05-08T13:27:22.419Z,33.70
2018-05-08T13:29:48.945Z,33.50
2018-05-08T13:32:15.357Z,34.00
2018-05-08T13:34:41.788Z,33.10
2018-05-08T13:37:08.201Z,32.90
2018-05-08T13:39:34.605Z,33.00
2018-05-08T13:42:01.805Z,33.60
2018-05-08T13:44:28.233Z,33.60
2018-05-08T13:46:54.655Z,33.20
2018-05-08T13:49:21.100Z,32.70
2018-05-08T13:51:47.546Z,32.90
2018-05-08T13:54:14.747Z,32.50
2018-05-08T13:56:41.897Z,32.60
2018-05-08T13:59:09.061Z,32.60
2018-05-08T14:01:35.497Z,32.50
2018-05-08T14:04:01.983Z,32.90
2018-05-08T14:06:28.481Z,32.80
2018-05-08T14:08:54.918Z,31.90
2018-05-08T14:11:21.367Z,31.60
2018-05-08T14:13:47.820Z,31.20
2018-05-08T14:16:14.255Z,31.60
2018-05-08T14:18:40.753Z,32.20
2018-05-08T14:21:07.177Z,32.50
2018-05-08T14:23:33.586Z,32.00
2018-05-08T14:26:00.027Z,32.70
2018-05-08T14:28:27.164Z,33.50
2018-05-08T14:30:54.313Z,33.50
2018-05-08T14:33:20.706Z,34.20
2018-05-08T14:35:47.444Z,33.10
2018-05-08T14:38:13.963Z,34.10
2018-05-08T14:40:40.490Z,33.30
2018-05-08T14:43:07.066Z,32.90
2018-05-08T14:45:33.498Z,33.20
2018-05-08T14:48:00.038Z,33.50
2018-05-08T14:50:26.466Z,33.90
2018-05-08T14:52:52.865Z,33.90
2018-05-08T14:55:19.277Z,33.90
2018-05-08T14:57:45.755Z,33.80
2018-05-08T15:00:12.192Z,33.40
2018-05-08T15:02:38.643Z,33.80
2018-05-08T15:05:05.125Z,33.60
2018-05-08T15:07:31.570Z,33.70
2018-05-08T15:09:57.983Z,33.70
2018-05-08T15:12:24.436Z,33.60
2018-05-08T15:14:50.857Z,33.10
2018-05-08T15:17:18.022Z,32.30
2018-05-08T15:19:44.473Z,32.30
2018-05-08T15:22:10.896Z,32.40
2018-05-08T15:24:37.316Z,32.30
2018-05-08T15:27:03.761Z,32.90
2018-05-08T15:29:30.414Z,33.30
2018-05-08T15:31:57.594Z,33.40
2018-05-08T15:34:24.816Z,33.30
2018-05-08T15:36:51.204Z,33.30
2018-05-08T15:39:17.766Z,33.60
2018-05-08T15:41:44.988Z,33.70
2018-05-08T15:44:11.644Z,33.70
2018-05-08T15:46:38.094Z,33.30
2018-05-08T15:49:04.669Z,32.80
2018-05-08T15:51:31.841Z,32.90
2018-05-08T15:53:58.233Z,32.80
2018-05-08T15:56:25.181Z,32.90
2018-05-08T15:58:51.638Z,32.40
2018-05-08T16:01:18.090Z,32.40
2018-05-08T16:03:44.585Z,32.30
2018-05-08T16:06:10.987Z,32.30
2018-05-08T16:08:37.393Z,32.30
2018-05-08T16:11:03.893Z,32.70
2018-05-08T16:13:30.599Z,32.70
2018-05-08T16:15:57.318Z,33.50
2018-05-08T16:18:24.673Z,33.10
2018-05-08T16:20:51.130Z,33.00
2018-05-08T16:23:17.593Z,33.30
2018-05-08T16:25:44.121Z,32.80
2018-05-08T16:28:10.564Z,32.50
2018-05-08T16:30:37.000Z,32.40
2018-05-08T16:33:03.440Z,33.30
2018-05-08T16:35:29.818Z,32.90
2018-05-08T16:37:56.289Z,32.70
2018-05-08T16:40:22.748Z,32.80
2018-05-08T16:42:49.871Z,32.80
2018-05-08T16:45:16.411Z,32.80
2018-05-08T16:47:43.579Z,32.60
2018-05-08T16:50:10.752Z,32.70
2018-05-08T16:52:37.197Z,32.60
2018-05-08T16:55:05.666Z,32.50
2018-05-08T16:57:32.081Z,32.50
2018-05-08T16:59:58.455Z,32.60
2018-05-08T17:02:24.914Z,32.70
2018-05-08T17:04:51.383Z,33.00
2018-05-08T17:07:17.745Z,33.10
2018-05-08T17:09:44.326Z,33.10
2018-05-08T17:12:10.751Z,33.30
2018-05-08T17:14:37.188Z,33.70
2018-05-08T17:17:03.662Z,34.20
2018-05-08T17:19:30.159Z,34.40
2018-05-08T17:21:56.609Z,34.50
2018-05-08T17:24:23.949Z,34.60
2018-05-08T17:26:50.374Z,34.60
2018-05-08T17:29:16.811Z,35.50
2018-05-08T17:31:44.065Z,35.40
2018-05-08T17:34:11.257Z,35.60
2018-05-08T17:36:38.367Z,36.00
2018-05-08T17:39:05.552Z,36.10
2018-05-08T17:41:32.689Z,36.30
2018-05-08T17:43:59.835Z,36.20
2018-05-08T17:46:27.027Z,36.60
2018-05-08T17:48:53.458Z,36.50
2018-05-08T17:51:19.868Z,36.70
2018-05-08T17:53:48.274Z,36.90
2018-05-08T17:56:14.710Z,37.20
2018-05-08T17:58:41.164Z,37.30
2018-05-08T18:01:07.611Z,37.40
2018-05-08T18:03:34.102Z,37.40
2018-05-08T18:06:00.508Z,37.70
2018-05-08T18:08:27.041Z,37.60
2018-05-08T18:10:53.452Z,37.80
2018-05-08T18:13:20.715Z,37.70
2018-05-08T18:15:47.891Z,38.20
2018-05-08T18:18:15.017Z,38.20
2018-05-08T18:20:41.411Z,38.20
2018-05-08T18:23:07.970Z,38.40
2018-05-08T18:25:34.567Z,38.50
2018-05-08T18:28:00.956Z,39.20
2018-05-08T18:30:28.126Z,38.90
2018-05-08T18:32:54.628Z,38.90
2018-05-08T18:35:21.054Z,39.10
2018-05-08T18:37:48.235Z,39.90
2018-05-08T18:40:14.649Z,39.40
2018-05-08T18:42:41.975Z,39.40
2018-05-08T18:45:08.438Z,39.40
2018-05-08T18:47:35.676Z,39.80
2018-05-08T18:50:02.145Z,39.80
2018-05-08T18:52:29.338Z,40.30
2018-05-08T18:54:55.819Z,40.20
2018-05-08T18:57:23.052Z,40.60
2018-05-08T18:59:50.456Z,40.60
2018-05-08T19:02:16.959Z,40.90
2018-05-08T19:04:43.420Z,41.10
2018-05-08T19:07:09.951Z,41.40
2018-05-08T19:09:37.118Z,42.00
2018-05-08T19:12:03.652Z,41.90
2018-05-08T19:14:30.233Z,42.10
2018-05-08T19:16:57.425Z,42.40
2018-05-08T19:19:30.002Z,42.40
2018-05-08T19:21:56.502Z,42.70
2018-05-08T19:24:29.096Z,43.10
2018-05-08T19:26:55.643Z,43.10
2018-05-08T19:29:28.175Z,43.40
2018-05-08T19:31:54.616Z,43.80
2018-05-08T19:34:21.151Z,44.40
2018-05-08T19:36:53.654Z,44.50
2018-05-08T19:39:20.881Z,45.20
2018-05-08T19:41:47.293Z,45.10
2018-05-08T19:44:13.735Z,45.30
2018-05-08T19:46:40.183Z,45.40
2018-05-08T19:49:06.672Z,45.80
2018-05-08T19:51:33.153Z,47.10
2018-05-08T19:54:00.398Z,46.60
2018-05-08T19:56:26.920Z,46.90
2018-05-08T19:58:53.335Z,47.30
2018-05-08T20:01:19.807Z,47.40
2018-05-08T20:03:46.238Z,47.80
2018-05-08T20:06:13.540Z,48.90
2018-05-08T20:08:40.102Z,48.20
2018-05-08T20:11:06.554Z,48.50
2018-05-08T20:13:33.129Z,48.70
2018-05-08T20:15:59.745Z,48.90
2018-05-08T20:18:26.192Z,48.80
2018-05-08T20:20:52.681Z,49.00
2018-05-08T20:23:19.070Z,49.10
2018-05-08T20:25:45.573Z,49.30
2018-05-08T20:28:13.472Z,49.50
2018-05-08T20:30:40.113Z,49.50
2018-05-08T20:33:06.717Z,49.60
2018-05-08T20:35:33.900Z,50.00
2018-05-08T20:38:00.435Z,49.90
2018-05-08T20:40:27.655Z,50.20
2018-05-08T20:42:54.111Z,50.10
2018-05-08T20:45:20.569Z,50.30
2018-05-08T20:47:47.019Z,50.40
2018-05-08T20:50:13.470Z,50.40
2018-05-08T20:52:40.081Z,50.50
2018-05-08T20:55:06.768Z,50.60
2018-05-08T20:57:33.270Z,50.70
2018-05-08T20:59:59.788Z,51.00
2018-05-08T21:02:26.270Z,51.10
2018-05-08T21:04:52.711Z,51.20
2018-05-08T21:07:19.243Z,51.40
2018-05-08T21:09:45.694Z,51.50
2018-05-08T21:12:12.223Z,51.70
2018-05-08T21:14:38.719Z,51.80
2018-05-08T21:17:06.337Z,52.10
2018-05-08T21:19:32.772Z,52.20
2018-05-08T21:21:59.373Z,52.40
2018-05-08T21:24:26.025Z,52.50
2018-05-08T21:26:52.444Z,52.70
2018-05-08T21:29:26.605Z,53.00
2018-05-08T21:31:53.081Z,52.90
2018-05-08T21:34:19.579Z,53.10
2018-05-08T21:36:46.077Z,53.40
2018-05-08T21:39:13.287Z,54.10
2018-05-08T21:41:39.722Z,54.10
2018-05-08T21:44:06.829Z,54.30
2018-05-08T21:46:33.284Z,54.50
2018-05-08T21:48:59.724Z,54.70
2018-05-08T21:51:26.170Z,54.70
2018-05-08T21:53:52.656Z,54.70
2018-05-08T21:56:19.889Z,54.90
2018-05-08T21:58:47.261Z,54.80
2018-05-08T22:01:13.672Z,54.80
2018-05-08T22:03:40.876Z,55.10
2018-05-08T22:06:07.370Z,54.70
2018-05-08T22:08:34.606Z,54.40
2018-05-08T22:11:01.146Z,54.40
2018-05-08T22:13:28.400Z,54.30
2018-05-08T22:15:54.854Z,54.30
2018-05-08T22:18:21.266Z,54.30
2018-05-08T22:20:47.797Z,54.30
2018-05-08T22:23:14.233Z,54.50
2018-05-08T22:25:40.669Z,54.60
2018-05-08T22:28:07.102Z,54.80
2018-05-08T22:30:33.566Z,55.20
2018-05-08T22:33:00.066Z,55.40
2018-05-08T22:35:26.562Z,55.80
2018-05-08T22:37:53.007Z,56.00
2018-05-08T22:40:19.426Z,56.40
2018-05-08T22:42:45.970Z,56.80
2018-05-08T22:45:12.387Z,57.00
2018-05-08T22:47:38.854Z,57.30
2018-05-08T22:50:05.403Z,57.50
2018-05-08T22:52:31.824Z,57.90
2018-05-08T22:54:58.249Z,58.10
2018-05-08T22:57:25.484Z,58.70
2018-05-08T22:59:51.954Z,58.50
2018-05-08T23:02:18.398Z,59.00
2018-05-08T23:04:45.592Z,59.60
2018-05-08T23:07:12.176Z,59.50
2018-05-08T23:09:38.612Z,59.80
2018-05-08T23:12:05.847Z,60.50
2018-05-08T23:14:32.301Z,60.40
2018-05-08T23:16:58.747Z,60.90
2018-05-08T23:19:25.989Z,61.40
2018-05-08T23:21:52.421Z,61.40
2018-05-08T23:24:18.838Z,61.90
2018-05-08T23:26:45.387Z,62.20
2018-05-08T23:29:11.920Z,62.70
2018-05-08T23:31:39.071Z,63.50
2018-05-08T23:34:06.248Z,63.90
2018-05-08T23:36:33.394Z,64.40
2018-05-08T23:39:00.548Z,64.90
2018-05-08T23:41:27.054Z,65.50
2018-05-08T23:43:54.230Z,65.70
2018-05-08T23:46:20.662Z,65.50
2018-05-08T23:48:47.131Z,66.10
2018-05-08T23:51:13.593Z,66.40
2018-05-08T23:53:40.819Z,67.40
2018-05-08T23:56:07.273Z,67.40
2018-05-08T23:58:33.705Z,67.90
